地図

経路データ

SID SEASON NUMBER BASIN SUBBASIN NAME ISO_TIME NATURE LAT LON WMO_WIND WMO_PRES WMO_AGENCY TRACK_TYPE DIST2LAND LANDFALL IFLAG USA_AGENCY USA_ATCF_ID USA_LAT USA_LON USA_RECORD USA_STATUS USA_WIND USA_PRES USA_SSHS USA_R34_NE USA_R34_SE USA_R34_SW USA_R34_NW USA_R50_NE USA_R50_SE USA_R50_SW USA_R50_NW USA_R64_NE USA_R64_SE USA_R64_SW USA_R64_NW USA_POCI USA_ROCI USA_RMW USA_EYE TOKYO_LAT TOKYO_LON TOKYO_GRADE TOKYO_WIND TOKYO_PRES TOKYO_R50_DIR TOKYO_R50_LONG TOKYO_R50_SHORT TOKYO_R30_DIR TOKYO_R30_LONG TOKYO_R30_SHORT TOKYO_LAND CMA_LAT CMA_LON CMA_CAT CMA_WIND CMA_PRES HKO_LAT HKO_LON HKO_CAT HKO_WIND HKO_PRES NEWDELHI_LAT NEWDELHI_LON NEWDELHI_GRADE NEWDELHI_WIND NEWDELHI_PRES NEWDELHI_CI NEWDELHI_DP NEWDELHI_POCI REUNION_LAT REUNION_LON REUNION_TYPE REUNION_WIND REUNION_PRES REUNION_TNUM REUNION_CI REUNION_RMW REUNION_R34_NE REUNION_R34_SE REUNION_R34_SW REUNION_R34_NW REUNION_R50_NE REUNION_R50_SE REUNION_R50_SW REUNION_R50_NW REUNION_R64_NE REUNION_R64_SE REUNION_R64_SW REUNION_R64_NW BOM_LAT BOM_LON BOM_TYPE BOM_WIND BOM_PRES BOM_TNUM BOM_CI BOM_RMW BOM_R34_NE BOM_R34_SE BOM_R34_SW BOM_R34_NW BOM_R50_NE BOM_R50_SE BOM_R50_SW BOM_R50_NW BOM_R64_NE BOM_R64_SE BOM_R64_SW BOM_R64_NW BOM_ROCI BOM_POCI BOM_EYE BOM_POS_METHOD BOM_PRES_METHOD NADI_LAT NADI_LON NADI_CAT NADI_WIND NADI_PRES WELLINGTON_LAT WELLINGTON_LON WELLINGTON_WIND WELLINGTON_PRES DS824_LAT DS824_LON DS824_STAGE DS824_WIND DS824_PRES TD9636_LAT TD9636_LON TD9636_STAGE TD9636_WIND TD9636_PRES TD9635_LAT TD9635_LON TD9635_WIND TD9635_PRES TD9635_ROCI NEUMANN_LAT NEUMANN_LON NEUMANN_CLASS NEUMANN_WIND NEUMANN_PRES MLC_LAT MLC_LON MLC_CLASS MLC_WIND MLC_PRES USA_GUST BOM_GUST BOM_GUST_PER REUNION_GUST REUNION_GUST_PER USA_SEAHGT USA_SEARAD_NE USA_SEARAD_SE USA_SEARAD_SW USA_SEARAD_NW STORM_SPEED STORM_DIR
1892010S06088 1892 1 SI MM NOT_NAMED 1892-01-10 00:00:00 TS -5.80000 88.2000 main 1264 1264 _________O____ -1 -5.80000 88.2000 TC 4 172
1892010S06088 1892 1 SI MM NOT_NAMED 1892-01-10 03:00:00 TS -6.00000 88.2000 main 1274 1274 _________P____ -1 -6.00000 88.2000 TC 4 0
1892010S06088 1892 1 SI MM NOT_NAMED 1892-01-10 06:00:00 TS -6.20000 88.2000 main 1283 1283 _________O____ -1 -6.20000 88.2000 TC 4 0
1892010S06088 1892 1 SI MM NOT_NAMED 1892-01-10 09:00:00 TS -6.40000 88.2000 main 1293 1293 _________P____ -1 -6.40000 88.2000 TC 4 0
1892010S06088 1892 1 SI MM NOT_NAMED 1892-01-10 12:00:00 TS -6.60000 88.2000 main 1303 1303 _________O____ -1 -6.60000 88.2000 TC 4 0
1892010S06088 1892 1 SI MM NOT_NAMED 1892-01-10 15:00:00 TS -6.80000 88.1925 main 1313 1313 _________P____ -1 -6.80000 88.1925 TC 4 0
1892010S06088 1892 1 SI MM NOT_NAMED 1892-01-10 18:00:00 TS -7.00000 88.2000 main 1324 1324 _________O____ -1 -7.00000 88.2000 TC 4 173
1892010S06088 1892 1 SI MM NOT_NAMED 1892-01-10 21:00:00 TS -7.19250 88.2500 main 1325 1325 _________P____ -1 -7.19250 88.2500 TC 4 167
1892010S06088 1892 1 SI MM NOT_NAMED 1892-01-11 00:00:00 TS -7.40000 88.3000 main 1337 1337 _________O____ -1 -7.40000 88.3000 TC 5 173
1892010S06088 1892 1 SI MM NOT_NAMED 1892-01-11 03:00:00 TS -7.65000 88.3000 main 1348 1348 _________P____ -1 -7.65000 88.3000 TC 5 178
1892010S06088 1892 1 SI MM NOT_NAMED 1892-01-11 06:00:00 TS -7.90000 88.3000 main 1365 1365 _________O____ -1 -7.90000 88.3000 TC 5 174
1892010S06088 1892 1 SI MM NOT_NAMED 1892-01-11 09:00:00 TS -8.10750 88.3425 main 1376 1367 _________P____ -1 -8.10750 88.3425 TC 4 167
1892010S06088 1892 1 SI MM NOT_NAMED 1892-01-11 12:00:00 TS -8.30000 88.4000 main 1378 1378 _________O____ -1 -8.30000 88.4000 TC 4 166
1892010S06088 1892 1 SI MM NOT_NAMED 1892-01-11 15:00:00 TS -8.50750 88.4500 main 1381 1381 _________P____ -1 -8.50750 88.4500 TC 4 167
1892010S06088 1892 1 SI MM NOT_NAMED 1892-01-11 18:00:00 TS -8.70000 88.5000 main 1393 1393 _________O____ -1 -8.70000 88.5000 TC 4 163
1892010S06088 1892 1 SI MM NOT_NAMED 1892-01-11 21:00:00 TS -8.84250 88.5500 main 1390 1390 _________P____ -1 -8.84250 88.5500 TC 3 163
1892010S06088 1892 1 SI MM NOT_NAMED 1892-01-12 00:00:00 TS -9.00000 88.6000 main 1403 1403 _________O____ -1 -9.00000 88.6000 TC 4 167
1892010S06088 1892 1 SI MM NOT_NAMED 1892-01-12 03:00:00 TS -9.23500 88.6500 main 1407 1407 _________P____ -1 -9.23500 88.6500 TC 5 169
1892010S06088 1892 1 SI MM NOT_NAMED 1892-01-12 06:00:00 TS -9.50000 88.7000 main 1427 1427 _________O____ -1 -9.50000 88.7000 TC 5 170
1892010S06088 1892 1 SI MM NOT_NAMED 1892-01-12 09:00:00 TS -9.75750 88.7500 main 1439 1439 _________P____ -1 -9.75750 88.7500 TC 5 169
1892010S06088 1892 1 SI MM NOT_NAMED 1892-01-12 12:00:00 TS -10.0000 88.8000 main 1453 1453 _________O____ -1 -10.0000 88.8000 TC 5 169
1892010S06088 1892 1 SI MM NOT_NAMED 1892-01-12 15:00:00 TS -10.2075 88.8425 main 1467 1459 _________P____ -1 -10.2075 88.8425 TC 4 167
1892010S06088 1892 1 SI MM NOT_NAMED 1892-01-12 18:00:00 TS -10.4000 88.9000 main 1474 1473 _________O____ -1 -10.4000 88.9000 TC 4 159
1892010S06088 1892 1 SI MM NOT_NAMED 1892-01-12 21:00:00 TS -10.6000 89.0000 main 1480 1479 _________P____ -1 -10.6000 89.0000 TC 4 154
1892010S06088 1892 1 SI MM NOT_NAMED 1892-01-13 00:00:00 TS -10.8000 89.1000 main 1487 1487 _________O____ -1 -10.8000 89.1000 TC 4 159
1892010S06088 1892 1 SI MM NOT_NAMED 1892-01-13 03:00:00 TS -11.0075 89.1575 main 1494 1494 _________P____ -1 -11.0075 89.1575 TC 4 167
1892010S06088 1892 1 SI MM NOT_NAMED 1892-01-13 06:00:00 TS -11.2000 89.2000 main 1510 1510 _________O____ -1 -11.2000 89.2000 TC 4 165
1892010S06088 1892 1 SI MM NOT_NAMED 1892-01-13 09:00:00 TS -11.3500 89.2500 main 1510 1510 _________P____ -1 -11.3500 89.2500 TC 3 163
1892010S06088 1892 1 SI MM NOT_NAMED 1892-01-13 12:00:00 TS -11.5000 89.3000 main 1526 1526 _________O____ -1 -11.5000 89.3000 TC 4 165
1892010S06088 1892 1 SI MM NOT_NAMED 1892-01-13 15:00:00 TS -11.6925 89.3425 main 1542 1534 _________P____ -1 -11.6925 89.3425 TC 4 167
1892010S06088 1892 1 SI MM NOT_NAMED 1892-01-13 18:00:00 TS -11.9000 89.4000 main 1550 1550 _________O____ -1 -11.9000 89.4000 TC 4 160
1892010S06088 1892 1 SI MM NOT_NAMED 1892-01-13 21:00:00 TS -12.1000 89.4925 main 1559 1559 _________P____ -1 -12.1000 89.4925 TC 4 154
1892010S06088 1892 1 SI MM NOT_NAMED 1892-01-14 00:00:00 TS -12.3000 89.6000 main 1569 1569 _________O____ -1 -12.3000 89.6000 TC 4 152
1892010S06088 1892 1 SI MM NOT_NAMED 1892-01-14 03:00:00 TS -12.4925 89.7075 main 1578 1578 _________P____ -1 -12.4925 89.7075 TC 4 154
1892010S06088 1892 1 SI MM NOT_NAMED 1892-01-14 06:00:00 TS -12.7000 89.8000 main 1589 1589 _________O____ -1 -12.7000 89.8000 TC 5 162
1892010S06088 1892 1 SI MM NOT_NAMED 1892-01-14 09:00:00 TS -12.9200 89.8501 main 1599 1599 _________P____ -1 -12.9200 89.8501 TC 5 169
1892010S06088 1892 1 SI MM NOT_NAMED 1892-01-14 12:00:00 TS -13.2000 89.9000 main 1625 1625 _________O____ -1 -13.2000 89.9000 TC 7 167
1892010S06088 1892 1 SI MM NOT_NAMED 1892-01-14 15:00:00 TS -13.5700 89.9999 main 1654 1654 _________P____ -1 -13.5700 89.9999 TC 8 166
1892010S06088 1892 1 SI WA NOT_NAMED 1892-01-14 18:00:00 TS -14.0000 90.1000 main 1684 1684 _________O____ -1 -14.0000 90.1000 TC 9 170
1892010S06088 1892 1 SI WA NOT_NAMED 1892-01-14 21:00:00 TS -14.4475 90.1625 main 1714 1714 _________P____ -1 -14.4475 90.1625 TC 9 174
1892010S06088 1892 1 SI WA NOT_NAMED 1892-01-15 00:00:00 TS -14.9000 90.2000 main 1760 _________O____ -1 -14.9000 90.2000 TC 9 175

IBTrACS Databaseについて

本データベースは、米国NOAAが公開する1842年以降の世界の熱帯低気圧のベストトラックデータアーカイブInternational Best Track Archive for Climate Stewardship (IBTrACS)を、ウェブで閲覧しやすい形式に変換したものです。

最終更新日:2021-10-25